Terminal Aerodrome Forecast
Issued by NWS

Home | Current Version | Previous Version | Text Only | Print | Product List | Glossary On
Versions: 1 2 3 4 5 6 7 8 9 10 11 12 13 14 15 16 17 18
000
FTUS41 KBTV 171120
TAFSLK
TAF
KSLK 171120Z 1712/1812 00000KT P6SM SCT250
     FM171800 10006KT P6SM VCSH BKN050
     FM172100 11007KT 6SM -FZRASNPL BR OVC015
     FM180000 12008KT 1SM -SNPL BR OVC008
     FM180600 15007KT 4SM -SNPL BR OVC025=

USA.gov is the U.S. government's official web portal to all federal, state and local government web resources and services.